Time,TemperatureF,DewpointF,PressureIn,WindDirection,WindDirectionDegrees,WindSpeedMPH,WindSpeedGustMPH,Humidity,HourlyPrecipIn,Conditions,Clouds,dailyrainin,SoftwareType,DateUTC
2013-01-10 00:05:00,53.2,50.9,30.56,SSE,167,0.0,5.0,92,0.00,,,0.00,Wunderground v.1.15,2013-01-10 05:05:00,
2013-01-10 00:10:00,53.1,50.5,30.56,SSE,167,0.0,5.0,91,0.00,,,0.00,Wunderground v.1.15,2013-01-10 05:10:00,
2013-01-10 00:15:00,53.0,50.4,30.56,SSE,167,0.0,5.0,91,0.00,,,0.00,Wunderground v.1.15,2013-01-10 05:15:00,
2013-01-10 00:20:00,52.9,50.6,30.56,SSE,167,0.0,5.0,92,0.00,,,0.00,Wunderground v.1.15,2013-01-10 05:20:00,
2013-01-10 00:25:00,52.7,50.4,30.56,SSE,167,0.0,5.0,92,0.00,,,0.00,Wunderground v.1.15,2013-01-10 05:25:00,
2013-01-10 00:30:00,52.7,50.4,30.56,SSE,167,0.0,5.0,92,0.00,,,0.00,Wunderground v.1.15,2013-01-10 05:30:00,
2013-01-10 00:35:00,52.7,50.4,30.56,SSE,167,0.0,5.0,92,0.00,,,0.00,Wunderground v.1.15,2013-01-10 05:35:00,
2013-01-10 00:40:00,52.7,50.7,30.56,SSE,154,0.0,5.0,93,0.00,,,0.00,Wunderground v.1.15,2013-01-10 05:40:00,
2013-01-10 00:45:00,52.7,50.7,30.56,SSE,154,1.0,1.0,93,0.00,,,0.00,Wunderground v.1.15,2013-01-10 05:45:00,
2013-01-10 00:50:00,52.7,50.7,30.56,SSE,154,0.0,5.0,93,0.00,,,0.00,Wunderground v.1.15,2013-01-10 05:50:00,
2013-01-10 00:55:00,52.7,50.7,30.56,SSE,154,0.0,5.0,93,0.00,,,0.00,Wunderground v.1.15,2013-01-10 05:55:00,
2013-01-10 01:05:00,52.6,50.6,30.55,SSE,154,0.0,5.0,93,0.00,,,0.00,Wunderground v.1.15,2013-01-10 06:05:00,
2013-01-10 01:10:00,52.6,50.6,30.55,SSE,154,0.0,5.0,93,0.00,,,0.00,Wunderground v.1.15,2013-01-10 06:10:00,
2013-01-10 01:15:00,52.6,50.9,30.55,SSE,154,0.0,5.0,94,0.00,,,0.00,Wunderground v.1.15,2013-01-10 06:15:00,
2013-01-10 01:20:00,52.7,51.0,30.55,SSE,154,0.0,5.0,94,0.00,,,0.00,Wunderground v.1.15,2013-01-10 06:20:00,
2013-01-10 01:25:00,52.7,51.0,30.55,SSE,154,0.0,5.0,94,0.00,,,0.00,Wunderground v.1.15,2013-01-10 06:25:00,
2013-01-10 01:30:00,52.7,51.0,30.55,SSE,154,0.0,5.0,94,0.00,,,0.00,Wunderground v.1.15,2013-01-10 06:30:00,
2013-01-10 01:35:00,52.6,50.9,30.56,SSE,154,0.0,5.0,94,0.00,,,0.00,Wunderground v.1.15,2013-01-10 06:35:00,
2013-01-10 01:40:00,52.4,50.4,30.56,SSE,154,0.0,5.0,93,0.00,,,0.00,Wunderground v.1.15,2013-01-10 06:40:00,
2013-01-10 01:45:00,52.2,50.2,30.56,SSE,154,0.0,5.0,93,0.00,,,0.00,Wunderground v.1.15,2013-01-10 06:45:00,
2013-01-10 01:50:00,52.0,50.3,30.55,SSE,154,0.0,5.0,94,0.00,,,0.00,Wunderground v.1.15,2013-01-10 06:50:00,
2013-01-10 01:55:00,52.1,50.4,30.55,SSE,154,0.0,5.0,94,0.00,,,0.00,Wunderground v.1.15,2013-01-10 06:55:00,
2013-01-10 02:05:00,52.3,50.9,30.55,SSE,154,0.0,5.0,95,0.00,,,0.00,Wunderground v.1.15,2013-01-10 07:05:00,
2013-01-10 02:10:00,52.3,50.9,30.55,SSE,154,0.0,5.0,95,0.00,,,0.00,Wunderground v.1.15,2013-01-10 07:10:00,
2013-01-10 02:15:00,52.4,51.0,30.55,SSE,154,0.0,5.0,95,0.00,,,0.00,Wunderground v.1.15,2013-01-10 07:15:00,
2013-01-10 02:25:00,52.5,51.1,30.54,SSE,154,0.0,5.0,95,0.00,,,0.00,Wunderground v.1.15,2013-01-10 07:25:00,
2013-01-10 02:30:00,52.5,51.1,30.54,SSE,154,0.0,5.0,95,0.00,,,0.00,Wunderground v.1.15,2013-01-10 07:30:00,
2013-01-10 02:35:00,52.6,51.2,30.54,SSE,154,0.0,5.0,95,0.00,,,0.00,Wunderground v.1.15,2013-01-10 07:35:00,
2013-01-10 02:40:00,52.3,50.6,30.54,SSE,154,0.0,5.0,94,0.00,,,0.00,Wunderground v.1.15,2013-01-10 07:40:00,
2013-01-10 02:45:00,52.3,50.9,30.55,SSE,154,0.0,5.0,95,0.00,,,0.00,Wunderground v.1.15,2013-01-10 07:45:00,
2013-01-10 02:50:00,52.3,50.9,30.54,SSE,154,0.0,5.0,95,0.00,,,0.00,Wunderground v.1.15,2013-01-10 07:50:00,
2013-01-10 02:55:00,52.3,50.9,30.54,SSE,154,0.0,5.0,95,0.00,,,0.00,Wunderground v.1.15,2013-01-10 07:55:00,
2013-01-10 03:05:00,52.3,50.6,30.55,SSE,154,0.0,5.0,94,0.00,,,0.00,Wunderground v.1.15,2013-01-10 08:05:00,
2013-01-10 03:10:00,52.2,50.5,30.55,SSE,154,0.0,5.0,94,0.00,,,0.00,Wunderground v.1.15,2013-01-10 08:10:00,
2013-01-10 03:15:00,52.1,50.4,30.55,SSE,154,0.0,5.0,94,0.00,,,0.00,Wunderground v.1.15,2013-01-10 08:15:00,
2013-01-10 03:20:00,51.9,50.2,30.55,SSE,154,0.0,5.0,94,0.00,,,0.00,Wunderground v.1.15,2013-01-10 08:20:00,
2013-01-10 03:25:00,51.8,50.1,30.55,SSE,154,0.0,5.0,94,0.00,,,0.00,Wunderground v.1.15,2013-01-10 08:25:00,
2013-01-10 03:30:00,51.9,50.2,30.55,SSE,154,0.0,5.0,94,0.00,,,0.00,Wunderground v.1.15,2013-01-10 08:30:00,
2013-01-10 03:35:00,52.0,50.3,30.54,SSE,154,0.0,5.0,94,0.00,,,0.00,Wunderground v.1.15,2013-01-10 08:35:00,
2013-01-10 03:40:00,52.0,50.3,30.54,SSE,154,0.0,5.0,94,0.00,,,0.00,Wunderground v.1.15,2013-01-10 08:40:00,
2013-01-10 03:45:00,52.1,50.4,30.54,SSE,154,0.0,5.0,94,0.00,,,0.00,Wunderground v.1.15,2013-01-10 08:45:00,
2013-01-10 03:50:00,52.1,50.4,30.54,SSE,154,0.0,5.0,94,0.00,,,0.00,Wunderground v.1.15,2013-01-10 08:50:00,
2013-01-10 03:55:00,52.2,50.5,30.54,SSE,154,0.0,5.0,94,0.00,,,0.00,Wunderground v.1.15,2013-01-10 08:55:00,
2013-01-10 04:05:00,52.3,50.6,30.54,SSE,154,0.0,5.0,94,0.00,,,0.00,Wunderground v.1.15,2013-01-10 09:05:00,
2013-01-10 04:10:00,52.4,50.7,30.54,SSE,154,0.0,5.0,94,0.00,,,0.00,Wunderground v.1.15,2013-01-10 09:10:00,
2013-01-10 04:15:00,52.4,50.4,30.54,SSE,154,0.0,5.0,93,0.00,,,0.00,Wunderground v.1.15,2013-01-10 09:15:00,
2013-01-10 04:20:00,52.5,50.5,30.54,SSE,155,0.0,5.0,93,0.00,,,0.00,Wunderground v.1.15,2013-01-10 09:20:00,
2013-01-10 04:25:00,52.6,50.6,30.54,SSE,155,0.0,5.0,93,0.00,,,0.00,Wunderground v.1.15,2013-01-10 09:25:00,
2013-01-10 04:30:00,52.7,50.7,30.53,SSE,155,0.0,5.0,93,0.00,,,0.00,Wunderground v.1.15,2013-01-10 09:30:00,
2013-01-10 04:40:00,52.9,50.9,30.53,SSE,155,0.0,5.0,93,0.00,,,0.00,Wunderground v.1.15,2013-01-10 09:40:00,
2013-01-10 04:45:00,53.2,51.2,30.53,SSE,155,0.0,5.0,93,0.00,,,0.00,Wunderground v.1.15,2013-01-10 09:45:00,
2013-01-10 04:50:00,53.3,51.3,30.53,SSE,155,0.0,5.0,93,0.00,,,0.00,Wunderground v.1.15,2013-01-10 09:50:00,
2013-01-10 04:55:00,53.5,51.2,30.53,SSE,155,0.0,5.0,92,0.00,,,0.00,Wunderground v.1.15,2013-01-10 09:55:00,
2013-01-10 05:05:00,53.6,51.0,30.53,SSE,155,0.0,5.0,91,0.00,,,0.00,Wunderground v.1.15,2013-01-10 10:05:00,
2013-01-10 05:10:00,53.8,51.2,30.52,SSE,155,0.0,5.0,91,0.00,,,0.00,Wunderground v.1.15,2013-01-10 10:10:00,
2013-01-10 05:15:00,53.6,51.0,30.52,SSE,155,0.0,5.0,91,0.00,,,0.00,Wunderground v.1.15,2013-01-10 10:15:00,
2013-01-10 05:20:00,53.6,51.0,30.52,SSE,155,0.0,5.0,91,0.00,,,0.00,Wunderground v.1.15,2013-01-10 10:20:00,
2013-01-10 05:25:00,53.6,51.0,30.52,SSE,155,0.0,5.0,91,0.00,,,0.00,Wunderground v.1.15,2013-01-10 10:25:00,
2013-01-10 05:30:00,53.3,50.7,30.52,SSE,155,0.0,5.0,91,0.00,,,0.00,Wunderground v.1.15,2013-01-10 10:30:00,
2013-01-10 05:40:00,52.7,50.4,30.52,SSE,155,0.0,5.0,92,0.00,,,0.00,Wunderground v.1.15,2013-01-10 10:40:00,
2013-01-10 05:45:00,52.6,50.3,30.52,SSE,155,0.0,5.0,92,0.00,,,0.00,Wunderground v.1.15,2013-01-10 10:45:00,
2013-01-10 05:55:00,52.7,50.4,30.52,SSE,155,0.0,5.0,92,0.00,,,0.00,Wunderground v.1.15,2013-01-10 10:55:00,
2013-01-10 06:05:00,52.8,50.5,30.53,SSE,155,0.0,5.0,92,0.00,,,0.00,Wunderground v.1.15,2013-01-10 11:05:00,
2013-01-10 06:10:00,52.8,50.5,30.53,SSE,155,0.0,5.0,92,0.00,,,0.00,Wunderground v.1.15,2013-01-10 11:10:00,
2013-01-10 06:15:00,52.8,50.5,30.53,SSE,155,0.0,5.0,92,0.00,,,0.00,Wunderground v.1.15,2013-01-10 11:15:00,
2013-01-10 06:20:00,52.8,50.5,30.53,SSE,155,0.0,5.0,92,0.00,,,0.00,Wunderground v.1.15,2013-01-10 11:20:00,
2013-01-10 06:25:00,52.8,50.5,30.54,SSE,155,0.0,5.0,92,0.00,,,0.00,Wunderground v.1.15,2013-01-10 11:25:00,
2013-01-10 06:30:00,52.8,50.5,30.54,SSE,155,0.0,5.0,92,0.00,,,0.00,Wunderground v.1.15,2013-01-10 11:30:00,
2013-01-10 06:35:00,53.0,50.7,30.54,SSE,155,0.0,5.0,92,0.00,,,0.00,Wunderground v.1.15,2013-01-10 11:35:00,
2013-01-10 06:40:00,53.0,50.4,30.54,SSE,155,0.0,5.0,91,0.00,,,0.00,Wunderground v.1.15,2013-01-10 11:40:00,
2013-01-10 06:45:00,53.0,50.4,30.54,SSE,155,0.0,5.0,91,0.00,,,0.00,Wunderground v.1.15,2013-01-10 11:45:00,
2013-01-10 06:50:00,53.1,50.5,30.54,SSE,155,0.0,5.0,91,0.00,,,0.00,Wunderground v.1.15,2013-01-10 11:50:00,
2013-01-10 06:55:00,53.0,50.4,30.54,SSE,155,0.0,5.0,91,0.00,,,0.00,Wunderground v.1.15,2013-01-10 11:55:00,
2013-01-10 07:05:00,53.0,50.4,30.54,SSE,155,0.0,5.0,91,0.00,,,0.00,Wunderground v.1.15,2013-01-10 12:05:00,
2013-01-10 07:10:00,52.7,50.1,30.54,SSE,155,0.0,5.0,91,0.00,,,0.00,Wunderground v.1.15,2013-01-10 12:10:00,
2013-01-10 07:15:00,52.5,50.2,30.54,SSE,155,0.0,5.0,92,0.00,,,0.00,Wunderground v.1.15,2013-01-10 12:15:00,
2013-01-10 07:20:00,52.7,50.4,30.54,SSE,155,0.0,5.0,92,0.00,,,0.00,Wunderground v.1.15,2013-01-10 12:20:00,
2013-01-10 07:30:00,52.8,50.5,30.55,SSE,155,0.0,5.0,92,0.00,,,0.00,Wunderground v.1.15,2013-01-10 12:30:00,
2013-01-10 07:35:00,52.7,50.4,30.55,SSE,155,0.0,5.0,92,0.00,,,0.00,Wunderground v.1.15,2013-01-10 12:35:00,
2013-01-10 07:40:00,52.6,50.3,30.55,SSE,155,0.0,5.0,92,0.00,,,0.00,Wunderground v.1.15,2013-01-10 12:40:00,
2013-01-10 07:45:00,52.6,50.6,30.55,SSE,155,0.0,5.0,93,0.00,,,0.00,Wunderground v.1.15,2013-01-10 12:45:00,
2013-01-10 07:50:00,52.3,50.0,30.55,SE,131,0.0,5.0,92,0.00,,,0.00,Wunderground v.1.15,2013-01-10 12:50:00,
2013-01-10 07:55:00,52.2,50.2,30.55,SE,131,0.0,5.0,93,0.00,,,0.00,Wunderground v.1.15,2013-01-10 12:55:00,
2013-01-10 08:05:00,51.9,49.9,30.55,SE,131,0.0,5.0,93,0.00,,,0.00,Wunderground v.1.15,2013-01-10 13:05:00,
2013-01-10 08:10:00,51.9,50.2,30.55,SE,131,0.0,5.0,94,0.00,,,0.00,Wunderground v.1.15,2013-01-10 13:10:00,
2013-01-10 08:15:00,52.0,50.3,30.55,SE,131,0.0,5.0,94,0.00,,,0.00,Wunderground v.1.15,2013-01-10 13:15:00,
2013-01-10 08:20:00,52.3,50.6,30.56,SE,131,0.0,5.0,94,0.00,,,0.00,Wunderground v.1.15,2013-01-10 13:20:00,
2013-01-10 08:25:00,52.4,50.4,30.56,SE,131,0.0,5.0,93,0.00,,,0.00,Wunderground v.1.15,2013-01-10 13:25:00,
2013-01-10 08:30:00,52.3,50.3,30.56,SE,131,0.0,5.0,93,0.00,,,0.00,Wunderground v.1.15,2013-01-10 13:30:00,
2013-01-10 08:40:00,52.3,50.3,30.57,SE,131,0.0,5.0,93,0.00,,,0.00,Wunderground v.1.15,2013-01-10 13:40:00,
2013-01-10 08:45:00,52.2,50.2,30.57,SE,132,0.0,5.0,93,0.00,,,0.00,Wunderground v.1.15,2013-01-10 13:45:00,
2013-01-10 08:55:00,52.0,50.0,30.57,SE,132,0.0,5.0,93,0.00,,,0.00,Wunderground v.1.15,2013-01-10 13:55:00,
2013-01-10 09:05:00,51.8,49.8,30.57,SE,132,0.0,5.0,93,0.00,,,0.00,Wunderground v.1.15,2013-01-10 14:05:00,
2013-01-10 09:10:00,51.7,49.7,30.57,SE,132,0.0,5.0,93,0.00,,,0.00,Wunderground v.1.15,2013-01-10 14:10:00,
2013-01-10 09:15:00,51.6,49.9,30.57,SE,132,0.0,5.0,94,0.00,,,0.00,Wunderground v.1.15,2013-01-10 14:15:00,
2013-01-10 09:20:00,51.7,50.0,30.57,SE,132,0.0,5.0,94,0.00,,,0.00,Wunderground v.1.15,2013-01-10 14:20:00,
2013-01-10 09:25:00,51.9,50.5,30.57,SE,132,0.0,5.0,95,0.00,,,0.00,Wunderground v.1.15,2013-01-10 14:25:00,
2013-01-10 09:30:00,52.2,50.8,30.57,SE,132,0.0,5.0,95,0.00,,,0.00,Wunderground v.1.15,2013-01-10 14:30:00,
2013-01-10 09:35:00,52.5,51.1,30.57,SE,132,0.0,5.0,95,0.00,,,0.00,Wunderground v.1.15,2013-01-10 14:35:00,
2013-01-10 09:40:00,52.7,51.0,30.57,SE,132,0.0,5.0,94,0.00,,,0.00,Wunderground v.1.15,2013-01-10 14:40:00,
2013-01-10 09:45:00,52.9,50.9,30.57,South,182,0.0,5.0,93,0.00,,,0.00,Wunderground v.1.15,2013-01-10 14:45:00,
2013-01-10 09:50:00,52.9,50.9,30.57,SSE,163,1.0,5.0,93,0.00,,,0.00,Wunderground v.1.15,2013-01-10 14:50:00,
2013-01-10 09:55:00,53.0,50.7,30.57,SSE,163,1.0,1.0,92,0.00,,,0.00,Wunderground v.1.15,2013-01-10 14:55:00,
2013-01-10 10:05:00,52.8,50.5,30.58,SSE,163,0.0,5.0,92,0.00,,,0.00,Wunderground v.1.15,2013-01-10 15:05:00,
2013-01-10 10:10:00,52.8,50.8,30.58,SW,220,0.0,5.0,93,0.00,,,0.00,Wunderground v.1.15,2013-01-10 15:10:00,
2013-01-10 10:15:00,53.0,51.0,30.58,SW,226,1.0,1.0,93,0.00,,,0.00,Wunderground v.1.15,2013-01-10 15:15:00,
2013-01-10 10:20:00,53.5,51.2,30.57,SW,226,1.0,5.0,92,0.00,,,0.00,Wunderground v.1.15,2013-01-10 15:20:00,
2013-01-10 10:25:00,53.8,51.5,30.57,SW,226,1.0,5.0,92,0.00,,,0.00,Wunderground v.1.15,2013-01-10 15:25:00,
2013-01-10 10:30:00,54.1,51.5,30.57,SW,226,1.0,5.0,91,0.00,,,0.00,Wunderground v.1.15,2013-01-10 15:30:00,
2013-01-10 10:35:00,54.4,51.8,30.57,South,175,2.0,5.0,91,0.00,,,0.00,Wunderground v.1.15,2013-01-10 15:35:00,
2013-01-10 10:40:00,54.8,51.9,30.57,SW,219,2.0,5.0,90,0.00,,,0.00,Wunderground v.1.15,2013-01-10 15:40:00,
2013-01-10 10:45:00,55.3,52.1,30.57,SW,219,1.0,5.0,89,0.00,,,0.00,Wunderground v.1.15,2013-01-10 15:45:00,
2013-01-10 10:50:00,55.7,52.2,30.57,SSW,197,1.0,5.0,88,0.00,,,0.00,Wunderground v.1.15,2013-01-10 15:50:00,
2013-01-10 10:55:00,55.6,52.1,30.57,South,180,2.0,5.0,88,0.00,,,0.00,Wunderground v.1.15,2013-01-10 15:55:00,
2013-01-10 11:05:00,55.5,52.0,30.57,SSW,198,2.0,5.0,88,0.00,,,0.00,Wunderground v.1.15,2013-01-10 16:05:00,
2013-01-10 11:10:00,55.5,52.0,30.57,East,79,2.0,5.0,88,0.00,,,0.00,Wunderground v.1.15,2013-01-10 16:10:00,
2013-01-10 11:15:00,55.4,51.9,30.57,WSW,250,2.0,2.0,88,0.00,,,0.00,Wunderground v.1.15,2013-01-10 16:15:00,
2013-01-10 11:20:00,55.5,52.0,30.56,SSE,157,1.0,5.0,88,0.00,,,0.00,Wunderground v.1.15,2013-01-10 16:20:00,
2013-01-10 11:45:00,55.8,52.0,30.56,SSE,167,1.0,5.0,87,0.00,,,0.00,Wunderground v.1.15,2013-01-10 16:45:00,
2013-01-10 11:55:00,56.1,52.3,30.55,SSE,150,1.0,1.0,87,0.00,,,0.00,Wunderground v.1.15,2013-01-10 16:55:00,
2013-01-10 12:05:00,56.1,52.3,30.54,ESE,105,1.0,1.0,87,0.00,,,0.00,Wunderground v.1.15,2013-01-10 17:05:00,
2013-01-10 12:10:00,56.0,51.9,30.54,South,170,1.0,5.0,86,0.00,,,0.00,Wunderground v.1.15,2013-01-10 17:10:00,
2013-01-10 12:15:00,55.9,52.1,30.54,SSE,163,1.0,1.0,87,0.00,,,0.00,Wunderground v.1.15,2013-01-10 17:15:00,
2013-01-10 12:20:00,55.9,52.1,30.53,SE,132,1.0,2.0,87,0.00,,,0.00,Wunderground v.1.15,2013-01-10 17:20:00,
2013-01-10 12:25:00,55.6,51.8,30.53,ESE,123,1.0,5.0,87,0.00,,,0.00,Wunderground v.1.15,2013-01-10 17:25:00,
2013-01-10 12:30:00,55.4,51.9,30.53,SSW,195,1.0,5.0,88,0.00,,,0.00,Wunderground v.1.15,2013-01-10 17:30:00,
2013-01-10 12:40:00,56.2,52.7,30.52,SW,236,1.0,5.0,88,0.00,,,0.00,Wunderground v.1.15,2013-01-10 17:40:00,
2013-01-10 12:45:00,56.9,53.1,30.52,NNE,24,1.0,1.0,87,0.00,,,0.00,Wunderground v.1.15,2013-01-10 17:45:00,
2013-01-10 12:50:00,57.4,52.9,30.52,NNE,19,1.0,5.0,85,0.00,,,0.00,Wunderground v.1.15,2013-01-10 17:50:00,
2013-01-10 12:55:00,57.9,53.1,30.51,South,170,1.0,5.0,84,0.00,,,0.00,Wunderground v.1.15,2013-01-10 17:55:00,
2013-01-10 13:05:00,57.6,52.8,30.51,SW,215,2.0,2.0,84,0.00,,,0.00,Wunderground v.1.15,2013-01-10 18:05:00,
2013-01-10 13:10:00,57.9,52.8,30.51,West,265,2.0,5.0,83,0.00,,,0.00,Wunderground v.1.15,2013-01-10 18:10:00,
2013-01-10 13:15:00,58.1,52.6,30.50,SSE,166,1.0,5.0,82,0.00,,,0.00,Wunderground v.1.15,2013-01-10 18:15:00,
2013-01-10 13:20:00,58.0,52.9,30.50,South,182,2.0,5.0,83,0.00,,,0.00,Wunderground v.1.15,2013-01-10 18:20:00,
2013-01-10 13:25:00,57.8,52.7,30.49,SSW,205,2.0,2.0,83,0.00,,,0.00,Wunderground v.1.15,2013-01-10 18:25:00,
2013-01-10 13:30:00,57.8,52.7,30.49,SE,134,2.0,3.0,83,0.00,,,0.00,Wunderground v.1.15,2013-01-10 18:30:00,
2013-01-10 13:35:00,57.5,52.4,30.49,SSE,158,2.0,2.0,83,0.00,,,0.00,Wunderground v.1.15,2013-01-10 18:35:00,
2013-01-10 13:40:00,57.6,52.1,30.49,NE,51,2.0,5.0,82,0.00,,,0.00,Wunderground v.1.15,2013-01-10 18:40:00,
2013-01-10 13:45:00,57.7,52.6,30.48,ENE,61,1.0,5.0,83,0.00,,,0.00,Wunderground v.1.15,2013-01-10 18:45:00,
2013-01-10 13:50:00,58.3,52.8,30.48,SW,222,2.0,5.0,82,0.00,,,0.00,Wunderground v.1.15,2013-01-10 18:50:00,
2013-01-10 13:55:00,59.0,52.8,30.48,SW,229,2.0,5.0,80,0.00,,,0.00,Wunderground v.1.15,2013-01-10 18:55:00,
2013-01-10 14:05:00,60.2,53.0,30.48,East,94,1.0,5.0,77,0.00,,,0.00,Wunderground v.1.15,2013-01-10 19:05:00,
2013-01-10 14:10:00,60.3,52.7,30.48,WSW,250,1.0,5.0,76,0.00,,,0.00,Wunderground v.1.15,2013-01-10 19:10:00,
2013-01-10 14:15:00,60.3,52.7,30.48,SE,145,1.0,5.0,76,0.00,,,0.00,Wunderground v.1.15,2013-01-10 19:15:00,
2013-01-10 14:20:00,60.0,52.4,30.47,ESE,119,1.0,5.0,76,0.00,,,0.00,Wunderground v.1.15,2013-01-10 19:20:00,
2013-01-10 14:25:00,59.9,52.3,30.47,SSE,167,2.0,2.0,76,0.00,,,0.00,Wunderground v.1.15,2013-01-10 19:25:00,
2013-01-10 14:30:00,60.2,52.6,30.47,SE,125,2.0,5.0,76,0.00,,,0.00,Wunderground v.1.15,2013-01-10 19:30:00,
2013-01-10 14:35:00,60.4,52.4,30.47,South,188,1.0,5.0,75,0.00,,,0.00,Wunderground v.1.15,2013-01-10 19:35:00,
2013-01-10 14:40:00,60.4,52.1,30.47,East,84,2.0,5.0,74,0.00,,,0.00,Wunderground v.1.15,2013-01-10 19:40:00,
2013-01-10 14:45:00,60.4,52.4,30.47,West,280,2.0,2.0,75,0.00,,,0.00,Wunderground v.1.15,2013-01-10 19:45:00,
2013-01-10 14:55:00,60.4,52.1,30.47,SSE,165,2.0,5.0,74,0.00,,,0.00,Wunderground v.1.15,2013-01-10 19:55:00,
2013-01-10 15:05:00,61.1,52.4,30.47,WSW,240,1.0,5.0,73,0.00,,,0.00,Wunderground v.1.15,2013-01-10 20:05:00,
2013-01-10 15:10:00,61.4,52.3,30.47,SSE,167,1.0,5.0,72,0.00,,,0.00,Wunderground v.1.15,2013-01-10 20:10:00,
2013-01-10 15:15:00,61.5,52.4,30.47,SSW,203,2.0,2.0,72,0.00,,,0.00,Wunderground v.1.15,2013-01-10 20:15:00,
2013-01-10 15:20:00,61.4,52.3,30.47,SE,128,2.0,5.0,72,0.00,,,0.00,Wunderground v.1.15,2013-01-10 20:20:00,
2013-01-10 15:25:00,61.4,52.3,30.47,WSW,245,1.0,1.0,72,0.00,,,0.00,Wunderground v.1.15,2013-01-10 20:25:00,
2013-01-10 15:30:00,61.5,52.4,30.47,SSE,167,1.0,5.0,72,0.00,,,0.00,Wunderground v.1.15,2013-01-10 20:30:00,
2013-01-10 15:35:00,61.6,52.5,30.47,SW,234,1.0,5.0,72,0.00,,,0.00,Wunderground v.1.15,2013-01-10 20:35:00,
2013-01-10 15:40:00,62.0,52.5,30.47,South,177,1.0,5.0,71,0.00,,,0.00,Wunderground v.1.15,2013-01-10 20:40:00,
2013-01-10 15:45:00,61.6,52.1,30.47,SSW,204,1.0,1.0,71,0.00,,,0.00,Wunderground v.1.15,2013-01-10 20:45:00,
2013-01-10 15:50:00,61.3,52.2,30.47,ESE,121,2.0,2.0,72,0.00,,,0.00,Wunderground v.1.15,2013-01-10 20:50:00,
2013-01-10 15:55:00,60.9,52.2,30.48,East,101,2.0,2.0,73,0.00,,,0.00,Wunderground v.1.15,2013-01-10 20:55:00,
2013-01-10 16:05:00,60.4,52.1,30.48,West,264,1.0,5.0,74,0.00,,,0.00,Wunderground v.1.15,2013-01-10 21:05:00,
2013-01-10 16:10:00,60.1,52.1,30.48,SSE,167,1.0,5.0,75,0.00,,,0.00,Wunderground v.1.15,2013-01-10 21:10:00,
2013-01-10 16:15:00,60.0,52.1,30.48,NE,42,1.0,1.0,75,0.00,,,0.00,Wunderground v.1.15,2013-01-10 21:15:00,
2013-01-10 16:20:00,59.8,51.9,30.47,North,11,1.0,5.0,75,0.00,,,0.00,Wunderground v.1.15,2013-01-10 21:20:00,
2013-01-10 16:25:00,59.5,51.9,30.47,WSW,238,1.0,5.0,76,0.00,,,0.00,Wunderground v.1.15,2013-01-10 21:25:00,
2013-01-10 16:30:00,59.3,51.7,30.47,SSW,200,1.0,5.0,76,0.00,,,0.00,Wunderground v.1.15,2013-01-10 21:30:00,
2013-01-10 16:35:00,59.0,51.8,30.48,SW,217,1.0,5.0,77,0.00,,,0.00,Wunderground v.1.15,2013-01-10 21:35:00,
2013-01-10 16:40:00,58.9,51.7,30.47,ENE,77,1.0,5.0,77,0.00,,,0.00,Wunderground v.1.15,2013-01-10 21:40:00,
2013-01-10 16:45:00,58.9,51.7,30.47,SE,130,1.0,1.0,77,0.00,,,0.00,Wunderground v.1.15,2013-01-10 21:45:00,
2013-01-10 16:50:00,58.7,51.5,30.48,SW,219,1.0,4.0,77,0.00,,,0.00,Wunderground v.1.15,2013-01-10 21:50:00,
2013-01-10 16:55:00,58.5,51.7,30.48,SE,140,1.0,5.0,78,0.00,,,0.00,Wunderground v.1.15,2013-01-10 21:55:00,
2013-01-10 17:05:00,57.9,51.4,30.48,NE,34,1.0,5.0,79,0.00,,,0.00,Wunderground v.1.15,2013-01-10 22:05:00,
2013-01-10 17:10:00,57.5,51.0,30.48,East,79,1.0,5.0,79,0.00,,,0.00,Wunderground v.1.15,2013-01-10 22:10:00,
2013-01-10 17:15:00,57.2,51.1,30.48,ESE,123,1.0,1.0,80,0.00,,,0.00,Wunderground v.1.15,2013-01-10 22:15:00,
2013-01-10 17:25:00,56.5,50.7,30.47,ESE,111,0.0,5.0,81,0.00,,,0.00,Wunderground v.1.15,2013-01-10 22:25:00,
2013-01-10 17:30:00,56.2,50.8,30.47,West,265,0.0,5.0,82,0.00,,,0.00,Wunderground v.1.15,2013-01-10 22:30:00,
2013-01-10 17:40:00,55.9,50.8,30.47,ESE,115,0.0,5.0,83,0.00,,,0.00,Wunderground v.1.15,2013-01-10 22:40:00,
2013-01-10 17:45:00,55.8,50.7,30.47,SSE,167,0.0,5.0,83,0.00,,,0.00,Wunderground v.1.15,2013-01-10 22:45:00,
2013-01-10 17:55:00,55.7,50.6,30.47,West,270,1.0,5.0,83,0.00,,,0.00,Wunderground v.1.15,2013-01-10 22:55:00,
2013-01-10 18:05:00,55.5,50.7,30.47,WSW,244,1.0,5.0,84,0.00,,,0.00,Wunderground v.1.15,2013-01-10 23:05:00,
2013-01-10 18:10:00,55.5,51.1,30.47,NNE,24,1.0,5.0,85,0.00,,,0.00,Wunderground v.1.15,2013-01-10 23:10:00,
2013-01-10 18:15:00,55.4,51.0,30.46,South,189,0.0,5.0,85,0.00,,,0.00,Wunderground v.1.15,2013-01-10 23:15:00,
2013-01-10 18:25:00,55.2,50.8,30.47,ESE,109,1.0,1.0,85,0.00,,,0.00,Wunderground v.1.15,2013-01-10 23:25:00,
2013-01-10 18:30:00,55.1,50.7,30.47,SW,216,1.0,5.0,85,0.00,,,0.00,Wunderground v.1.15,2013-01-10 23:30:00,
2013-01-10 18:40:00,55.0,50.6,30.47,SE,146,0.0,5.0,85,0.00,,,0.00,Wunderground v.1.15,2013-01-10 23:40:00,
2013-01-10 18:45:00,55.0,50.6,30.47,SE,146,0.0,5.0,85,0.00,,,0.00,Wunderground v.1.15,2013-01-10 23:45:00,
2013-01-10 18:50:00,54.9,50.5,30.47,WSW,246,1.0,5.0,85,0.00,,,0.00,Wunderground v.1.15,2013-01-10 23:50:00,
2013-01-10 18:55:00,54.8,50.7,30.47,SSW,212,1.0,1.0,86,0.00,,,0.00,Wunderground v.1.15,2013-01-10 23:55:00,
2013-01-10 19:05:00,54.8,50.7,30.47,SSW,212,0.0,5.0,86,0.00,,,0.00,Wunderground v.1.15,2013-01-11 00:05:00,
2013-01-10 19:10:00,54.7,50.6,30.47,SSW,212,1.0,5.0,86,0.00,,,0.00,Wunderground v.1.15,2013-01-11 00:10:00,
2013-01-10 19:15:00,54.6,50.5,30.47,SSW,212,1.0,1.0,86,0.00,,,0.00,Wunderground v.1.15,2013-01-11 00:15:00,
2013-01-10 19:25:00,54.5,50.4,30.47,SSW,213,0.0,5.0,86,0.00,,,0.00,Wunderground v.1.15,2013-01-11 00:25:00,
2013-01-10 19:35:00,54.4,50.0,30.46,SSW,213,1.0,1.0,85,0.00,,,0.00,Wunderground v.1.15,2013-01-11 00:35:00,
2013-01-10 19:40:00,54.4,50.0,30.47,SSW,211,1.0,5.0,85,0.00,,,0.00,Wunderground v.1.15,2013-01-11 00:40:00,
2013-01-10 19:45:00,54.3,49.9,30.47,South,171,1.0,5.0,85,0.00,,,0.00,Wunderground v.1.15,2013-01-11 00:45:00,
2013-01-10 19:50:00,54.3,49.9,30.47,SSE,167,1.0,5.0,85,0.00,,,0.00,Wunderground v.1.15,2013-01-11 00:50:00,
2013-01-10 19:55:00,54.3,49.9,30.46,SW,229,1.0,5.0,85,0.00,,,0.00,Wunderground v.1.15,2013-01-11 00:55:00,
2013-01-10 20:05:00,54.2,49.8,30.46,SW,229,0.0,5.0,85,0.00,,,0.00,Wunderground v.1.15,2013-01-11 01:05:00,
2013-01-10 20:10:00,54.2,49.8,30.45,South,176,1.0,5.0,85,0.00,,,0.00,Wunderground v.1.15,2013-01-11 01:10:00,
2013-01-10 20:15:00,54.1,49.7,30.45,South,176,1.0,1.0,85,0.00,,,0.00,Wunderground v.1.15,2013-01-11 01:15:00,
2013-01-10 20:20:00,54.1,49.7,30.45,South,176,1.0,5.0,85,0.00,,,0.00,Wunderground v.1.15,2013-01-11 01:20:00,
2013-01-10 20:25:00,54.0,49.3,30.45,SW,219,0.0,5.0,84,0.00,,,0.00,Wunderground v.1.15,2013-01-11 01:25:00,
2013-01-10 20:35:00,54.0,49.3,30.45,South,180,1.0,5.0,84,0.00,,,0.00,Wunderground v.1.15,2013-01-11 01:35:00,
2013-01-10 20:40:00,53.9,49.2,30.44,SW,224,1.0,5.0,84,0.00,,,0.00,Wunderground v.1.15,2013-01-11 01:40:00,
2013-01-10 20:45:00,53.9,49.2,30.45,SW,223,1.0,1.0,84,0.00,,,0.00,Wunderground v.1.15,2013-01-11 01:45:00,
2013-01-10 20:50:00,53.9,49.2,30.45,SSE,154,1.0,2.0,84,0.00,,,0.00,Wunderground v.1.15,2013-01-11 01:50:00,
2013-01-10 20:55:00,53.8,49.1,30.45,SSE,154,0.0,5.0,84,0.00,,,0.00,Wunderground v.1.15,2013-01-11 01:55:00,
2013-01-10 21:05:00,53.8,49.1,30.44,South,191,1.0,1.0,84,0.00,,,0.00,Wunderground v.1.15,2013-01-11 02:05:00,
2013-01-10 21:10:00,53.7,49.0,30.44,SSW,196,1.0,5.0,84,0.00,,,0.00,Wunderground v.1.15,2013-01-11 02:10:00,
2013-01-10 21:15:00,53.7,49.0,30.44,SSW,196,1.0,1.0,84,0.00,,,0.00,Wunderground v.1.15,2013-01-11 02:15:00,
2013-01-10 21:20:00,53.6,48.6,30.44,SSW,196,1.0,5.0,83,0.00,,,0.00,Wunderground v.1.15,2013-01-11 02:20:00,